Airfield :
LOGIN :

Register | Disclaimer

   EN    FR    IT 

 










Legend :    VFR   Marginal VFR   IFR   Intensive IFR   Very Intensive IFR
Visi :
Ceiling :
>= 8 km
>= 3000ft
5 to 8 km
1000 to 3000 ft
1500m to 5 km
500 to 1000 ft
800 to 1500m
200 to 500 ft
< 800m
< 200 ft
Symbols :   Thunderstorms  Fog  Heavy snow  Heavy precipitations  Wind > 20 kt
SIGMETs :     Misc.  Thunderstorms  Icing  Turbulence  Mountain Waves  Volcanic Ashes







- Airport Elevation : 1649 ft
- IATA code : HHN


EDFH - Frankfurt-Hahn Rhineland-Palatinate

CURRENT METAR :
  • 261150Z 29007KT 260V350 9999 BKN026 05/M02 Q1030

EXPIRED METARs :
  • 261120Z 33008KT 280V360 9999 BKN023 05/M00 Q1030
  • 261050Z 33007KT 280V360 9999 BKN024 04/M01 Q1030
  • 261020Z 30006KT 260V340 9999 BKN021 04/M01 Q1030
  • 260950Z 34008KT 300V010 9999 BKN024 04/M01 Q1030
  • 260920Z 30007KT 270V340 9999 SCT023 03/M01 Q1030

TAF TAF EDFH
Valid from the 26 at 12:00 until the 27 at 12:00 UTC


261100Z 2612/2712 32008KT 9999 BKN025
BECMG 2623/2702 VRB03KT
PROB30
TEMPO 2700/2710 4000 BR BKN009
BECMG 2707/2709 35006KT
No reported NOTAMs for that airfield.



MET'MAP, your aeronautical weather chart ! - Copyright ORBIFLY December 2007 - Disclaimer

ORBIFLY MET'MAP TEAM :

Programming & Development : Alexandra Zaïnal
Concept & Development : Baudouin d'Aumeries
Co-Development & Prog : Marc-Olivier Méhu
Technical & hardware support : Manuel Goepfert

Contact : metmap@orbifly.com




SOURCES & CREDITS :

   NOAA